sensor_id;sensor_type;location;lat;lon;timestamp;P1;durP1;ratioP1;P2;durP2;ratioP2
42670;SDS011;28283;55.426;37.756;2023-04-03T00:04:48;6.20;;;4.73;;
42670;SDS011;28283;55.426;37.756;2023-04-03T00:09:49;14.32;;;4.93;;
42670;SDS011;28283;55.426;37.756;2023-04-03T00:14:50;7.57;;;5.20;;
42670;SDS011;28283;55.426;37.756;2023-04-03T00:19:50;7.93;;;4.65;;
42670;SDS011;28283;55.426;37.756;2023-04-03T00:24:51;10.27;;;4.90;;
42670;SDS011;28283;55.426;37.756;2023-04-03T00:29:52;8.30;;;4.28;;
42670;SDS011;28283;55.426;37.756;2023-04-03T00:34:54;8.18;;;4.60;;
42670;SDS011;28283;55.426;37.756;2023-04-03T00:39:54;5.67;;;4.50;;
42670;SDS011;28283;55.426;37.756;2023-04-03T00:49:56;5.33;;;4.67;;
42670;SDS011;28283;55.426;37.756;2023-04-03T00:54:59;11.02;;;5.43;;
42670;SDS011;28283;55.426;37.756;2023-04-03T01:00:08;9.70;;;5.35;;
42670;SDS011;28283;55.426;37.756;2023-04-03T01:05:11;8.43;;;5.68;;
42670;SDS011;28283;55.426;37.756;2023-04-03T01:10:15;11.63;;;6.07;;
42670;SDS011;28283;55.426;37.756;2023-04-03T01:15:21;9.05;;;6.10;;
42670;SDS011;28283;55.426;37.756;2023-04-03T01:20:36;9.43;;;6.47;;
42670;SDS011;28283;55.426;37.756;2023-04-03T01:25:52;7.20;;;5.85;;
42670;SDS011;28283;55.426;37.756;2023-04-03T01:36:26;12.32;;;7.07;;
42670;SDS011;28283;55.426;37.756;2023-04-03T01:41:29;14.32;;;8.02;;
42670;SDS011;28283;55.426;37.756;2023-04-03T01:46:30;11.65;;;7.82;;
42670;SDS011;28283;55.426;37.756;2023-04-03T01:51:30;15.17;;;7.77;;
42670;SDS011;28283;55.426;37.756;2023-04-03T01:56:31;9.88;;;7.25;;
42670;SDS011;28283;55.426;37.756;2023-04-03T02:01:32;8.13;;;6.33;;
42670;SDS011;28283;55.426;37.756;2023-04-03T02:06:33;8.73;;;6.83;;
42670;SDS011;28283;55.426;37.756;2023-04-03T02:11:33;6.97;;;6.07;;
42670;SDS011;28283;55.426;37.756;2023-04-03T02:16:34;10.23;;;6.75;;
42670;SDS011;28283;55.426;37.756;2023-04-03T02:21:35;10.63;;;6.80;;
42670;SDS011;28283;55.426;37.756;2023-04-03T02:26:36;14.60;;;6.40;;
42670;SDS011;28283;55.426;37.756;2023-04-03T02:31:36;8.97;;;7.00;;
42670;SDS011;28283;55.426;37.756;2023-04-03T02:36:37;9.43;;;7.30;;
42670;SDS011;28283;55.426;37.756;2023-04-03T02:41:38;10.97;;;7.57;;
42670;SDS011;28283;55.426;37.756;2023-04-03T02:46:38;14.13;;;7.37;;
42670;SDS011;28283;55.426;37.756;2023-04-03T02:51:39;11.38;;;7.03;;
42670;SDS011;28283;55.426;37.756;2023-04-03T02:56:40;12.30;;;6.82;;
42670;SDS011;28283;55.426;37.756;2023-04-03T03:01:41;10.10;;;6.87;;
42670;SDS011;28283;55.426;37.756;2023-04-03T03:06:41;9.07;;;6.57;;
42670;SDS011;28283;55.426;37.756;2023-04-03T03:11:42;9.80;;;6.93;;
42670;SDS011;28283;55.426;37.756;2023-04-03T03:16:44;11.45;;;6.70;;
42670;SDS011;28283;55.426;37.756;2023-04-03T03:21:45;12.02;;;6.72;;
42670;SDS011;28283;55.426;37.756;2023-04-03T03:26:45;7.23;;;5.90;;
42670;SDS011;28283;55.426;37.756;2023-04-03T03:31:46;7.43;;;6.00;;
42670;SDS011;28283;55.426;37.756;2023-04-03T03:36:47;11.37;;;6.33;;
42670;SDS011;28283;55.426;37.756;2023-04-03T03:41:47;8.90;;;6.13;;
42670;SDS011;28283;55.426;37.756;2023-04-03T03:46:52;13.48;;;6.95;;
42670;SDS011;28283;55.426;37.756;2023-04-03T03:51:53;13.77;;;6.07;;
42670;SDS011;28283;55.426;37.756;2023-04-03T03:56:54;22.63;;;7.53;;
42670;SDS011;28283;55.426;37.756;2023-04-03T04:01:55;9.32;;;6.32;;
42670;SDS011;28283;55.426;37.756;2023-04-03T04:06:57;8.85;;;5.40;;
42670;SDS011;28283;55.426;37.756;2023-04-03T04:11:58;8.57;;;5.80;;
42670;SDS011;28283;55.426;37.756;2023-04-03T04:16:58;9.50;;;5.30;;
42670;SDS011;28283;55.426;37.756;2023-04-03T04:21:59;7.97;;;5.80;;
42670;SDS011;28283;55.426;37.756;2023-04-03T04:26:59;11.75;;;5.00;;
42670;SDS011;28283;55.426;37.756;2023-04-03T04:32:00;7.87;;;4.93;;
42670;SDS011;28283;55.426;37.756;2023-04-03T04:42:02;8.43;;;4.82;;
42670;SDS011;28283;55.426;37.756;2023-04-03T04:47:03;10.47;;;4.37;;
42670;SDS011;28283;55.426;37.756;2023-04-03T04:52:03;9.25;;;5.10;;
42670;SDS011;28283;55.426;37.756;2023-04-03T04:57:05;9.73;;;4.63;;
42670;SDS011;28283;55.426;37.756;2023-04-03T05:02:06;10.70;;;5.55;;
42670;SDS011;28283;55.426;37.756;2023-04-03T05:07:06;10.77;;;4.30;;
42670;SDS011;28283;55.426;37.756;2023-04-03T05:12:07;10.80;;;4.82;;
42670;SDS011;28283;55.426;37.756;2023-04-03T05:17:08;13.07;;;5.00;;
42670;SDS011;28283;55.426;37.756;2023-04-03T05:22:09;7.33;;;4.17;;
42670;SDS011;28283;55.426;37.756;2023-04-03T05:27:10;6.97;;;4.65;;
42670;SDS011;28283;55.426;37.756;2023-04-03T05:32:11;11.27;;;5.25;;
42670;SDS011;28283;55.426;37.756;2023-04-03T05:37:15;7.85;;;5.00;;
42670;SDS011;28283;55.426;37.756;2023-04-03T05:42:15;8.60;;;5.83;;
42670;SDS011;28283;55.426;37.756;2023-04-03T05:47:17;16.05;;;5.00;;
42670;SDS011;28283;55.426;37.756;2023-04-03T05:57:23;11.18;;;5.07;;
42670;SDS011;28283;55.426;37.756;2023-04-03T06:02:24;12.80;;;5.60;;
42670;SDS011;28283;55.426;37.756;2023-04-03T06:07:25;18.23;;;5.05;;
42670;SDS011;28283;55.426;37.756;2023-04-03T06:12:28;18.20;;;5.20;;
42670;SDS011;28283;55.426;37.756;2023-04-03T06:17:30;17.45;;;5.75;;
42670;SDS011;28283;55.426;37.756;2023-04-03T06:22:36;15.13;;;5.93;;
42670;SDS011;28283;55.426;37.756;2023-04-03T06:27:37;16.93;;;5.80;;
42670;SDS011;28283;55.426;37.756;2023-04-03T06:32:38;17.52;;;6.88;;
42670;SDS011;28283;55.426;37.756;2023-04-03T06:37:41;19.92;;;6.78;;
42670;SDS011;28283;55.426;37.756;2023-04-03T06:42:42;18.33;;;6.13;;
42670;SDS011;28283;55.426;37.756;2023-04-03T06:47:42;23.50;;;6.70;;
42670;SDS011;28283;55.426;37.756;2023-04-03T06:52:46;27.77;;;7.00;;
42670;SDS011;28283;55.426;37.756;2023-04-03T06:57:47;14.13;;;6.63;;
42670;SDS011;28283;55.426;37.756;2023-04-03T07:02:53;16.60;;;6.80;;
42670;SDS011;28283;55.426;37.756;2023-04-03T07:07:58;20.10;;;6.93;;
42670;SDS011;28283;55.426;37.756;2023-04-03T07:12:59;15.10;;;5.53;;
42670;SDS011;28283;55.426;37.756;2023-04-03T07:18:01;16.63;;;6.25;;
42670;SDS011;28283;55.426;37.756;2023-04-03T07:23:02;11.67;;;6.63;;
42670;SDS011;28283;55.426;37.756;2023-04-03T07:28:03;25.97;;;8.93;;
42670;SDS011;28283;55.426;37.756;2023-04-03T07:33:03;23.13;;;8.05;;
42670;SDS011;28283;55.426;37.756;2023-04-03T07:43:06;25.05;;;9.25;;
42670;SDS011;28283;55.426;37.756;2023-04-03T07:48:06;20.83;;;7.77;;
42670;SDS011;28283;55.426;37.756;2023-04-03T07:53:07;24.23;;;7.77;;
42670;SDS011;28283;55.426;37.756;2023-04-03T07:58:09;18.30;;;7.30;;
42670;SDS011;28283;55.426;37.756;2023-04-03T08:03:11;24.33;;;7.45;;
42670;SDS011;28283;55.426;37.756;2023-04-03T08:08:14;21.42;;;7.68;;
42670;SDS011;28283;55.426;37.756;2023-04-03T08:13:17;13.48;;;7.45;;
42670;SDS011;28283;55.426;37.756;2023-04-03T08:18:18;10.32;;;7.00;;
42670;SDS011;28283;55.426;37.756;2023-04-03T08:23:21;18.75;;;7.53;;
42670;SDS011;28283;55.426;37.756;2023-04-03T08:28:22;15.63;;;7.47;;
42670;SDS011;28283;55.426;37.756;2023-04-03T08:33:23;12.57;;;6.77;;
42670;SDS011;28283;55.426;37.756;2023-04-03T08:38:27;11.85;;;7.53;;
42670;SDS011;28283;55.426;37.756;2023-04-03T08:43:35;13.73;;;6.77;;
42670;SDS011;28283;55.426;37.756;2023-04-03T08:48:50;14.68;;;6.90;;
42670;SDS011;28283;55.426;37.756;2023-04-03T08:53:57;25.50;;;8.27;;
42670;SDS011;28283;55.426;37.756;2023-04-03T08:59:13;13.48;;;7.68;;
42670;SDS011;28283;55.426;37.756;2023-04-03T09:04:22;10.77;;;6.35;;
42670;SDS011;28283;55.426;37.756;2023-04-03T09:09:35;20.05;;;6.53;;
42670;SDS011;28283;55.426;37.756;2023-04-03T09:25:21;14.52;;;5.32;;
42670;SDS011;28283;55.426;37.756;2023-04-03T09:30:33;10.82;;;5.47;;
42670;SDS011;28283;55.426;37.756;2023-04-03T09:35:35;7.95;;;4.97;;
42670;SDS011;28283;55.426;37.756;2023-04-03T09:40:38;12.52;;;4.40;;
42670;SDS011;28283;55.426;37.756;2023-04-03T09:45:40;7.55;;;3.50;;
42670;SDS011;28283;55.426;37.756;2023-04-03T09:55:53;9.57;;;3.80;;
42670;SDS011;28283;55.426;37.756;2023-04-03T10:00:57;2.85;;;2.55;;
42670;SDS011;28283;55.426;37.756;2023-04-03T10:06:03;7.07;;;3.00;;
42670;SDS011;28283;55.426;37.756;2023-04-03T10:11:11;8.88;;;2.88;;
42670;SDS011;28283;55.426;37.756;2023-04-03T10:16:32;9.35;;;3.63;;
42670;SDS011;28283;55.426;37.756;2023-04-03T10:21:49;8.30;;;3.83;;
42670;SDS011;28283;55.426;37.756;2023-04-03T10:48:57;5.45;;;3.50;;
42670;SDS011;28283;55.426;37.756;2023-04-03T11:04:36;7.30;;;3.80;;
42670;SDS011;28283;55.426;37.756;2023-04-03T11:09:43;7.22;;;3.80;;
42670;SDS011;28283;55.426;37.756;2023-04-03T11:14:47;14.43;;;3.53;;
42670;SDS011;28283;55.426;37.756;2023-04-03T11:25:20;7.40;;;3.72;;
42670;SDS011;28283;55.426;37.756;2023-04-03T11:30:28;5.90;;;2.75;;
42670;SDS011;28283;55.426;37.756;2023-04-03T11:35:33;8.23;;;3.40;;
42670;SDS011;28283;55.426;37.756;2023-04-03T11:40:37;8.88;;;3.60;;
42670;SDS011;28283;55.426;37.756;2023-04-03T11:50:49;14.73;;;3.60;;
42670;SDS011;28283;55.426;37.756;2023-04-03T11:55:55;9.45;;;3.58;;
42670;SDS011;28283;55.426;37.756;2023-04-03T12:01:07;7.97;;;3.35;;
42670;SDS011;28283;55.426;37.756;2023-04-03T12:16:32;12.23;;;4.35;;
42670;SDS011;28283;55.426;37.756;2023-04-03T12:48:29;7.53;;;3.63;;
42670;SDS011;28283;55.426;37.756;2023-04-03T12:54:00;13.68;;;4.80;;
42670;SDS011;28283;55.426;37.756;2023-04-03T12:59:15;22.00;;;5.25;;
42670;SDS011;28283;55.426;37.756;2023-04-03T13:04:21;14.52;;;4.82;;
42670;SDS011;28283;55.426;37.756;2023-04-03T13:14:25;10.60;;;4.32;;
42670;SDS011;28283;55.426;37.756;2023-04-03T13:19:28;19.13;;;4.35;;
42670;SDS011;28283;55.426;37.756;2023-04-03T13:24:30;15.90;;;5.22;;
42670;SDS011;28283;55.426;37.756;2023-04-03T13:29:36;12.93;;;7.18;;
42670;SDS011;28283;55.426;37.756;2023-04-03T13:34:43;12.68;;;4.63;;
42670;SDS011;28283;55.426;37.756;2023-04-03T13:39:44;15.80;;;5.28;;
42670;SDS011;28283;55.426;37.756;2023-04-03T13:44:44;12.65;;;7.22;;
42670;SDS011;28283;55.426;37.756;2023-04-03T13:50:00;16.48;;;7.18;;
42670;SDS011;28283;55.426;37.756;2023-04-03T13:55:21;24.17;;;5.53;;
42670;SDS011;28283;55.426;37.756;2023-04-03T14:00:28;7.10;;;4.22;;
42670;SDS011;28283;55.426;37.756;2023-04-03T14:05:29;25.95;;;5.97;;
42670;SDS011;28283;55.426;37.756;2023-04-03T14:10:30;8.57;;;5.78;;
42670;SDS011;28283;55.426;37.756;2023-04-03T14:20:33;15.70;;;10.57;;
42670;SDS011;28283;55.426;37.756;2023-04-03T14:25:34;11.43;;;7.25;;
42670;SDS011;28283;55.426;37.756;2023-04-03T14:30:36;10.40;;;6.55;;
42670;SDS011;28283;55.426;37.756;2023-04-03T14:35:37;8.18;;;4.05;;
42670;SDS011;28283;55.426;37.756;2023-04-03T14:40:38;8.35;;;3.80;;
42670;SDS011;28283;55.426;37.756;2023-04-03T14:45:39;14.27;;;5.20;;
42670;SDS011;28283;55.426;37.756;2023-04-03T14:50:39;12.00;;;4.78;;
42670;SDS011;28283;55.426;37.756;2023-04-03T14:55:49;9.00;;;5.85;;
42670;SDS011;28283;55.426;37.756;2023-04-03T15:00:50;14.30;;;5.75;;
42670;SDS011;28283;55.426;37.756;2023-04-03T15:05:51;12.03;;;5.13;;
42670;SDS011;28283;55.426;37.756;2023-04-03T15:10:52;10.98;;;4.20;;
42670;SDS011;28283;55.426;37.756;2023-04-03T15:15:54;14.80;;;9.77;;
42670;SDS011;28283;55.426;37.756;2023-04-03T15:20:55;10.83;;;7.23;;
42670;SDS011;28283;55.426;37.756;2023-04-03T15:25:56;23.52;;;8.38;;
42670;SDS011;28283;55.426;37.756;2023-04-03T15:30:57;16.73;;;10.10;;
42670;SDS011;28283;55.426;37.756;2023-04-03T15:35:57;18.42;;;7.53;;
42670;SDS011;28283;55.426;37.756;2023-04-03T15:40:58;10.60;;;6.43;;
42670;SDS011;28283;55.426;37.756;2023-04-03T15:45:59;17.00;;;7.13;;
42670;SDS011;28283;55.426;37.756;2023-04-03T15:56:01;13.77;;;5.07;;
42670;SDS011;28283;55.426;37.756;2023-04-03T16:01:02;10.47;;;4.90;;
42670;SDS011;28283;55.426;37.756;2023-04-03T16:06:03;13.50;;;5.15;;
42670;SDS011;28283;55.426;37.756;2023-04-03T16:11:04;21.98;;;5.50;;
42670;SDS011;28283;55.426;37.756;2023-04-03T16:16:04;23.03;;;5.57;;
42670;SDS011;28283;55.426;37.756;2023-04-03T16:21:06;17.88;;;5.80;;
42670;SDS011;28283;55.426;37.756;2023-04-03T16:26:08;10.23;;;5.20;;
42670;SDS011;28283;55.426;37.756;2023-04-03T16:31:09;19.73;;;5.63;;
42670;SDS011;28283;55.426;37.756;2023-04-03T16:36:11;13.57;;;5.80;;
42670;SDS011;28283;55.426;37.756;2023-04-03T16:41:15;15.73;;;5.90;;
42670;SDS011;28283;55.426;37.756;2023-04-03T16:46:15;15.83;;;4.93;;
42670;SDS011;28283;55.426;37.756;2023-04-03T16:51:16;15.80;;;6.07;;
42670;SDS011;28283;55.426;37.756;2023-04-03T16:56:20;17.45;;;6.35;;
42670;SDS011;28283;55.426;37.756;2023-04-03T17:01:22;15.63;;;6.97;;
42670;SDS011;28283;55.426;37.756;2023-04-03T17:06:23;22.83;;;7.05;;
42670;SDS011;28283;55.426;37.756;2023-04-03T17:11:24;23.52;;;10.07;;
42670;SDS011;28283;55.426;37.756;2023-04-03T17:16:35;20.17;;;8.20;;
42670;SDS011;28283;55.426;37.756;2023-04-03T17:21:37;22.48;;;9.10;;
42670;SDS011;28283;55.426;37.756;2023-04-03T17:26:39;25.15;;;7.60;;
42670;SDS011;28283;55.426;37.756;2023-04-03T17:31:41;23.67;;;8.43;;
42670;SDS011;28283;55.426;37.756;2023-04-03T17:36:41;19.00;;;7.73;;
42670;SDS011;28283;55.426;37.756;2023-04-03T17:41:42;31.17;;;7.95;;
42670;SDS011;28283;55.426;37.756;2023-04-03T17:46:45;22.27;;;7.93;;
42670;SDS011;28283;55.426;37.756;2023-04-03T17:51:45;20.43;;;7.83;;
42670;SDS011;28283;55.426;37.756;2023-04-03T17:56:46;13.40;;;7.37;;
42670;SDS011;28283;55.426;37.756;2023-04-03T18:01:47;19.70;;;6.57;;
42670;SDS011;28283;55.426;37.756;2023-04-03T18:06:48;13.90;;;6.90;;
42670;SDS011;28283;55.426;37.756;2023-04-03T18:11:53;17.00;;;8.80;;
42670;SDS011;28283;55.426;37.756;2023-04-03T18:16:56;19.67;;;7.25;;
42670;SDS011;28283;55.426;37.756;2023-04-03T18:21:58;20.00;;;7.27;;
42670;SDS011;28283;55.426;37.756;2023-04-03T18:27:03;14.77;;;6.53;;
42670;SDS011;28283;55.426;37.756;2023-04-03T18:32:06;11.30;;;6.75;;
42670;SDS011;28283;55.426;37.756;2023-04-03T18:37:08;12.02;;;6.88;;
42670;SDS011;28283;55.426;37.756;2023-04-03T18:42:10;9.18;;;6.03;;
42670;SDS011;28283;55.426;37.756;2023-04-03T18:47:14;7.93;;;6.35;;
42670;SDS011;28283;55.426;37.756;2023-04-03T18:52:15;10.50;;;6.27;;
42670;SDS011;28283;55.426;37.756;2023-04-03T18:57:16;9.50;;;7.10;;
42670;SDS011;28283;55.426;37.756;2023-04-03T19:02:17;7.78;;;6.22;;
42670;SDS011;28283;55.426;37.756;2023-04-03T19:07:20;10.43;;;6.93;;
42670;SDS011;28283;55.426;37.756;2023-04-03T19:12:21;11.95;;;7.00;;
42670;SDS011;28283;55.426;37.756;2023-04-03T19:17:21;11.17;;;7.20;;
42670;SDS011;28283;55.426;37.756;2023-04-03T19:22:22;13.93;;;6.97;;
42670;SDS011;28283;55.426;37.756;2023-04-03T19:27:23;11.38;;;6.75;;
42670;SDS011;28283;55.426;37.756;2023-04-03T19:32:23;13.10;;;7.43;;
42670;SDS011;28283;55.426;37.756;2023-04-03T19:37:24;11.27;;;7.53;;
42670;SDS011;28283;55.426;37.756;2023-04-03T19:42:41;13.30;;;7.53;;
42670;SDS011;28283;55.426;37.756;2023-04-03T19:47:44;10.80;;;7.47;;
42670;SDS011;28283;55.426;37.756;2023-04-03T19:52:46;13.23;;;7.65;;
42670;SDS011;28283;55.426;37.756;2023-04-03T19:57:46;13.33;;;8.37;;
42670;SDS011;28283;55.426;37.756;2023-04-03T20:02:47;12.75;;;9.52;;
42670;SDS011;28283;55.426;37.756;2023-04-03T20:07:48;15.97;;;9.87;;
42670;SDS011;28283;55.426;37.756;2023-04-03T20:17:50;13.80;;;11.95;;
42670;SDS011;28283;55.426;37.756;2023-04-03T20:22:50;16.43;;;11.33;;
42670;SDS011;28283;55.426;37.756;2023-04-03T20:27:52;13.27;;;11.25;;
42670;SDS011;28283;55.426;37.756;2023-04-03T20:32:53;19.88;;;12.52;;
42670;SDS011;28283;55.426;37.756;2023-04-03T20:37:55;15.02;;;12.52;;
42670;SDS011;28283;55.426;37.756;2023-04-03T20:42:56;17.35;;;11.88;;
42670;SDS011;28283;55.426;37.756;2023-04-03T20:47:57;24.43;;;13.73;;
42670;SDS011;28283;55.426;37.756;2023-04-03T20:52:58;34.17;;;13.18;;
42670;SDS011;28283;55.426;37.756;2023-04-03T20:58:00;27.58;;;13.48;;
42670;SDS011;28283;55.426;37.756;2023-04-03T21:03:02;29.83;;;13.70;;
42670;SDS011;28283;55.426;37.756;2023-04-03T21:19:27;21.40;;;11.93;;
42670;SDS011;28283;55.426;37.756;2023-04-03T21:24:27;20.37;;;12.80;;
42670;SDS011;28283;55.426;37.756;2023-04-03T21:29:28;20.75;;;12.73;;
42670;SDS011;28283;55.426;37.756;2023-04-03T21:34:29;20.48;;;13.35;;
42670;SDS011;28283;55.426;37.756;2023-04-03T21:39:31;14.00;;;12.18;;
42670;SDS011;28283;55.426;37.756;2023-04-03T21:44:32;17.73;;;12.63;;
42670;SDS011;28283;55.426;37.756;2023-04-03T21:49:33;16.50;;;12.53;;
42670;SDS011;28283;55.426;37.756;2023-04-03T21:54:33;16.63;;;12.13;;
42670;SDS011;28283;55.426;37.756;2023-04-03T21:59:35;21.45;;;15.20;;
42670;SDS011;28283;55.426;37.756;2023-04-03T22:04:35;25.23;;;16.65;;
42670;SDS011;28283;55.426;37.756;2023-04-03T22:09:36;23.52;;;16.38;;
42670;SDS011;28283;55.426;37.756;2023-04-03T22:14:37;29.70;;;18.00;;
42670;SDS011;28283;55.426;37.756;2023-04-03T22:19:38;24.40;;;19.73;;
42670;SDS011;28283;55.426;37.756;2023-04-03T22:24:39;23.73;;;19.53;;
42670;SDS011;28283;55.426;37.756;2023-04-03T22:29:40;24.65;;;19.42;;
42670;SDS011;28283;55.426;37.756;2023-04-03T22:39:41;31.40;;;19.80;;
42670;SDS011;28283;55.426;37.756;2023-04-03T22:44:42;25.87;;;18.73;;
42670;SDS011;28283;55.426;37.756;2023-04-03T22:49:42;27.70;;;19.07;;
42670;SDS011;28283;55.426;37.756;2023-04-03T22:54:43;29.80;;;20.93;;
42670;SDS011;28283;55.426;37.756;2023-04-03T22:59:44;37.40;;;23.33;;
42670;SDS011;28283;55.426;37.756;2023-04-03T23:04:44;45.13;;;24.37;;
42670;SDS011;28283;55.426;37.756;2023-04-03T23:09:45;45.30;;;25.83;;
42670;SDS011;28283;55.426;37.756;2023-04-03T23:14:46;40.75;;;25.42;;
42670;SDS011;28283;55.426;37.756;2023-04-03T23:19:47;35.93;;;22.00;;
42670;SDS011;28283;55.426;37.756;2023-04-03T23:24:48;26.02;;;22.25;;
42670;SDS011;28283;55.426;37.756;2023-04-03T23:29:48;25.67;;;20.57;;
42670;SDS011;28283;55.426;37.756;2023-04-03T23:34:50;25.17;;;20.40;;
42670;SDS011;28283;55.426;37.756;2023-04-03T23:39:50;30.17;;;21.20;;
42670;SDS011;28283;55.426;37.756;2023-04-03T23:44:51;22.73;;;20.03;;
42670;SDS011;28283;55.426;37.756;2023-04-03T23:49:52;25.13;;;19.42;;
42670;SDS011;28283;55.426;37.756;2023-04-03T23:54:53;21.37;;;18.33;;
42670;SDS011;28283;55.426;37.756;2023-04-03T23:59:54;22.85;;;18.23;;
